createdAt,value
2017-11-15T00:01:20.348Z,18.10
2017-11-15T00:03:47.539Z,18.10
2017-11-15T00:06:15.457Z,18.00
2017-11-15T00:08:42.601Z,18.00
2017-11-15T00:11:09.752Z,18.00
2017-11-15T00:13:36.996Z,17.90
2017-11-15T00:16:04.144Z,18.00
2017-11-15T00:18:31.299Z,18.00
2017-11-15T00:20:58.451Z,18.10
2017-11-15T00:23:25.599Z,18.20
2017-11-15T00:25:52.777Z,18.20
2017-11-15T00:28:19.926Z,18.30
2017-11-15T00:30:47.077Z,18.30
2017-11-15T00:33:15.032Z,18.20
2017-11-15T00:35:42.176Z,18.20
2017-11-15T00:38:09.324Z,18.20
2017-11-15T00:40:36.474Z,18.20
2017-11-15T00:43:03.629Z,18.20
2017-11-15T00:45:30.781Z,18.20
2017-11-15T00:47:57.943Z,18.20
2017-11-15T00:50:25.120Z,18.10
2017-11-15T00:52:52.263Z,18.10
2017-11-15T00:55:20.210Z,18.20
2017-11-15T00:57:47.351Z,18.20
2017-11-15T01:00:14.545Z,18.20
2017-11-15T01:02:41.696Z,18.20
2017-11-15T01:05:08.846Z,18.10
2017-11-15T01:07:36.052Z,18.10
2017-11-15T01:10:03.200Z,18.10
2017-11-15T01:12:30.351Z,18.10
2017-11-15T01:14:57.496Z,18.20
2017-11-15T01:17:25.407Z,18.10
2017-11-15T01:19:52.557Z,18.10
2017-11-15T01:22:20.517Z,18.10
2017-11-15T01:24:47.669Z,18.00
2017-11-15T01:27:14.857Z,18.10
2017-11-15T01:29:42.782Z,18.10
2017-11-15T01:32:09.934Z,18.10
2017-11-15T01:34:37.117Z,18.10
2017-11-15T01:37:04.264Z,18.10
2017-11-15T01:39:31.440Z,18.00
2017-11-15T01:41:59.387Z,18.10
2017-11-15T01:44:26.550Z,18.10
2017-11-15T01:46:53.709Z,18.10
2017-11-15T01:49:21.630Z,18.10
2017-11-15T01:51:48.888Z,18.10
2017-11-15T01:54:16.044Z,18.00
2017-11-15T01:56:43.196Z,18.00
2017-11-15T01:59:10.349Z,18.10
2017-11-15T02:01:38.267Z,18.10
2017-11-15T02:04:06.195Z,18.10
2017-11-15T02:06:33.415Z,18.10
2017-11-15T02:09:00.564Z,18.00
2017-11-15T02:11:27.831Z,18.00
2017-11-15T02:13:54.976Z,18.00
2017-11-15T02:16:22.164Z,18.10
2017-11-15T02:18:49.312Z,18.10
2017-11-15T02:21:16.456Z,18.10
2017-11-15T02:23:43.602Z,18.00
2017-11-15T02:26:10.748Z,18.00
2017-11-15T02:28:37.891Z,17.90
2017-11-15T02:31:05.045Z,17.90
2017-11-15T02:33:32.968Z,18.00
2017-11-15T02:36:01.812Z,18.20
2017-11-15T02:38:28.963Z,18.20
2017-11-15T02:40:56.117Z,18.30
2017-11-15T02:43:23.259Z,18.30
2017-11-15T02:45:50.411Z,18.30
2017-11-15T02:48:17.554Z,18.20
2017-11-15T02:50:44.704Z,18.20
2017-11-15T02:53:11.864Z,18.20
2017-11-15T02:55:39.013Z,18.20
2017-11-15T02:58:06.157Z,18.20
2017-11-15T03:00:33.308Z,18.20
2017-11-15T03:03:00.490Z,18.20
2017-11-15T03:05:27.636Z,18.20
2017-11-15T03:07:54.780Z,18.10
2017-11-15T03:10:21.927Z,18.10
2017-11-15T03:12:49.072Z,18.10
2017-11-15T03:15:16.248Z,18.10
2017-11-15T03:17:43.394Z,18.20
2017-11-15T03:20:10.547Z,18.10
2017-11-15T03:22:37.691Z,18.10
2017-11-15T03:25:04.837Z,18.10
2017-11-15T03:27:31.980Z,18.10
2017-11-15T03:29:59.161Z,18.10
2017-11-15T03:32:26.372Z,18.10
2017-11-15T03:34:53.515Z,18.10
2017-11-15T03:37:20.664Z,18.10
2017-11-15T03:39:47.808Z,18.00
2017-11-15T03:42:14.956Z,18.00
2017-11-15T03:44:42.104Z,18.10
2017-11-15T03:47:09.243Z,18.10
2017-11-15T03:49:37.164Z,18.10
2017-11-15T03:52:04.310Z,18.10
2017-11-15T03:54:31.458Z,18.00
2017-11-15T03:56:58.604Z,18.00
2017-11-15T03:59:25.763Z,18.00
2017-11-15T04:01:52.917Z,18.10
2017-11-15T04:04:20.101Z,18.10
2017-11-15T04:06:48.036Z,18.10
2017-11-15T04:09:15.184Z,18.00
2017-11-15T04:11:43.168Z,18.00
2017-11-15T04:14:10.312Z,18.00
2017-11-15T04:16:37.459Z,18.00
2017-11-15T04:19:04.635Z,18.10
2017-11-15T04:21:32.560Z,18.10
2017-11-15T04:24:00.610Z,18.00
2017-11-15T04:26:28.524Z,18.00
2017-11-15T04:28:56.321Z,18.00
2017-11-15T04:31:24.280Z,18.00
2017-11-15T04:33:51.424Z,18.00
2017-11-15T04:36:20.239Z,18.00
2017-11-15T04:38:48.204Z,17.90
2017-11-15T04:41:15.360Z,17.90
2017-11-15T04:43:43.273Z,17.90
2017-11-15T04:46:11.335Z,17.90
2017-11-15T04:48:38.593Z,17.90
2017-11-15T04:51:06.636Z,18.00
2017-11-15T04:53:34.555Z,18.20
2017-11-15T04:56:01.700Z,18.20
2017-11-15T04:58:28.849Z,18.20
2017-11-15T05:00:56.804Z,18.20
2017-11-15T05:03:23.986Z,18.20
2017-11-15T05:05:51.132Z,18.10
2017-11-15T05:08:18.280Z,18.20
2017-11-15T05:10:45.429Z,18.20
2017-11-15T05:13:13.485Z,18.20
2017-11-15T05:15:40.643Z,18.20
2017-11-15T05:18:08.684Z,18.20
2017-11-15T05:20:37.610Z,18.00
2017-11-15T05:23:05.668Z,18.00
2017-11-15T05:25:33.605Z,18.10
2017-11-15T05:28:01.600Z,18.10
2017-11-15T05:30:28.744Z,18.10
2017-11-15T05:32:55.939Z,18.10
2017-11-15T05:35:23.136Z,18.00
2017-11-15T05:37:51.808Z,18.10
2017-11-15T05:40:19.860Z,18.10
2017-11-15T05:42:47.070Z,18.10
2017-11-15T05:45:15.195Z,18.10
2017-11-15T05:47:43.224Z,18.10
2017-11-15T05:50:10.468Z,18.10
2017-11-15T05:52:37.624Z,18.10
2017-11-15T05:55:04.872Z,18.10
2017-11-15T05:57:32.920Z,18.20
2017-11-15T06:00:01.775Z,18.10
2017-11-15T06:02:30.691Z,18.10
2017-11-15T06:04:57.855Z,18.10
2017-11-15T06:07:26.632Z,18.20
2017-11-15T06:09:54.742Z,18.10
2017-11-15T06:12:22.684Z,18.10
2017-11-15T06:14:49.893Z,18.10
2017-11-15T06:17:17.836Z,18.20
2017-11-15T06:19:47.046Z,18.20
2017-11-15T06:22:14.235Z,18.30
2017-11-15T06:24:41.351Z,18.40
2017-11-15T06:27:08.608Z,18.40
2017-11-15T06:29:35.687Z,18.50
2017-11-15T06:32:03.631Z,18.50
2017-11-15T06:34:30.913Z,18.50
2017-11-15T06:36:58.790Z,18.60
2017-11-15T06:39:26.719Z,18.60
2017-11-15T06:41:54.763Z,18.60
2017-11-15T06:44:21.911Z,18.50
2017-11-15T06:46:49.099Z,18.50
2017-11-15T06:49:16.253Z,18.50
2017-11-15T06:51:43.399Z,18.50
2017-11-15T06:54:10.549Z,18.50
2017-11-15T06:56:37.701Z,18.40
2017-11-15T06:59:04.856Z,18.40
2017-11-15T07:01:32.044Z,18.40
2017-11-15T07:03:59.193Z,18.40
2017-11-15T07:06:26.352Z,18.40
2017-11-15T07:08:54.267Z,18.40
2017-11-15T07:11:21.452Z,18.40
2017-11-15T07:13:49.434Z,18.40
2017-11-15T07:16:16.584Z,18.40
2017-11-15T07:18:43.833Z,18.40
2017-11-15T07:21:10.982Z,18.40
2017-11-15T07:23:39.080Z,18.30
2017-11-15T07:26:07.922Z,18.30
2017-11-15T07:28:35.069Z,18.30
2017-11-15T07:31:02.984Z,18.30
2017-11-15T07:33:31.804Z,18.30
2017-11-15T07:35:58.957Z,18.30
2017-11-15T07:38:26.109Z,18.30
2017-11-15T07:40:54.148Z,18.30
2017-11-15T07:43:22.064Z,18.20
2017-11-15T07:45:49.220Z,18.20
2017-11-15T07:48:16.376Z,18.20
2017-11-15T07:50:44.482Z,18.20
2017-11-15T07:53:12.416Z,18.30
2017-11-15T07:55:39.623Z,18.20
2017-11-15T07:58:08.151Z,18.30
2017-11-15T08:00:36.241Z,18.20
2017-11-15T08:03:04.891Z,18.20
2017-11-15T08:05:32.815Z,18.20
2017-11-15T08:08:00.728Z,18.30
2017-11-15T08:10:27.876Z,18.20
2017-11-15T08:12:55.019Z,18.30
2017-11-15T08:15:23.083Z,18.30
2017-11-15T08:17:51.181Z,18.20
2017-11-15T08:20:18.329Z,18.20
2017-11-15T08:22:46.284Z,18.20
2017-11-15T08:25:14.216Z,18.10
2017-11-15T08:27:41.391Z,18.20
2017-11-15T08:30:10.076Z,18.30
2017-11-15T08:32:38.029Z,18.40
2017-11-15T08:35:05.180Z,18.40
2017-11-15T08:37:32.344Z,18.40
2017-11-15T08:40:01.071Z,18.50
2017-11-15T08:42:29.128Z,18.40
2017-11-15T08:44:56.332Z,18.40
2017-11-15T08:47:24.393Z,18.40
2017-11-15T08:49:52.460Z,18.40
2017-11-15T08:52:19.611Z,18.40
2017-11-15T08:54:47.594Z,18.40
2017-11-15T08:57:14.743Z,18.40
2017-11-15T08:59:42.854Z,18.30
2017-11-15T09:02:11.703Z,18.30
2017-11-15T09:04:39.789Z,18.30
2017-11-15T09:07:07.884Z,18.30
2017-11-15T09:09:36.724Z,18.30
2017-11-15T09:12:04.649Z,18.30
2017-11-15T09:14:32.565Z,18.30
2017-11-15T09:16:59.719Z,18.30
2017-11-15T09:19:26.873Z,18.30
2017-11-15T09:21:54.942Z,18.20
2017-11-15T09:24:23.036Z,18.20
2017-11-15T09:26:51.097Z,18.30
2017-11-15T09:29:19.236Z,18.30
2017-11-15T09:31:47.279Z,18.30
2017-11-15T09:34:15.204Z,18.20
2017-11-15T09:36:42.356Z,18.20
2017-11-15T09:39:09.510Z,18.20
2017-11-15T09:41:37.448Z,18.20
2017-11-15T09:44:05.567Z,18.30
2017-11-15T09:46:33.660Z,18.30
2017-11-15T09:49:01.581Z,18.20
2017-11-15T09:51:28.768Z,18.20
2017-11-15T09:53:56.707Z,18.20
2017-11-15T09:56:24.829Z,18.20
2017-11-15T09:58:52.748Z,18.20
2017-11-15T10:01:20.028Z,18.20
2017-11-15T10:03:47.177Z,18.30
2017-11-15T10:06:14.977Z,18.20
2017-11-15T10:08:42.912Z,18.20
2017-11-15T10:11:10.064Z,18.10
2017-11-15T10:13:37.244Z,18.20
2017-11-15T10:16:05.161Z,18.30
2017-11-15T10:18:32.331Z,18.20
2017-11-15T10:20:59.476Z,18.20
2017-11-15T10:23:26.627Z,18.30
2017-11-15T10:25:53.780Z,18.20
2017-11-15T10:28:20.932Z,18.20
2017-11-15T10:30:48.081Z,18.20
2017-11-15T10:33:15.233Z,18.20
2017-11-15T10:35:42.384Z,18.20
2017-11-15T10:38:09.537Z,18.10
2017-11-15T10:40:36.692Z,18.10
2017-11-15T10:43:03.845Z,18.20
2017-11-15T10:45:30.997Z,18.20
2017-11-15T10:47:58.140Z,18.30
2017-11-15T10:50:25.288Z,18.40
2017-11-15T10:52:53.213Z,18.50
2017-11-15T10:55:20.369Z,18.40
2017-11-15T10:57:47.512Z,18.40
2017-11-15T11:00:15.468Z,18.40
2017-11-15T11:02:43.425Z,18.40
2017-11-15T11:05:11.357Z,18.40
2017-11-15T11:07:38.540Z,18.40
2017-11-15T11:10:05.696Z,18.40
2017-11-15T11:12:33.620Z,18.40
2017-11-15T11:15:00.783Z,18.40
2017-11-15T11:17:28.696Z,18.40
2017-11-15T11:19:56.614Z,18.40
2017-11-15T11:22:23.770Z,18.40
2017-11-15T11:24:51.729Z,18.40
2017-11-15T11:27:18.875Z,18.40
2017-11-15T11:29:46.024Z,18.30
2017-11-15T11:32:13.205Z,18.30
2017-11-15T11:34:41.272Z,18.30
2017-11-15T11:37:08.434Z,18.30
2017-11-15T11:39:36.541Z,18.30
2017-11-15T11:42:04.461Z,18.30
2017-11-15T11:44:32.373Z,18.30
2017-11-15T11:47:01.241Z,18.30
2017-11-15T11:49:28.390Z,18.30
2017-11-15T11:51:55.571Z,18.30
2017-11-15T11:54:23.495Z,18.30
2017-11-15T11:56:50.681Z,18.30
2017-11-15T11:59:18.598Z,18.30
2017-11-15T12:01:46.556Z,18.30
2017-11-15T12:04:13.716Z,18.30
2017-11-15T12:06:40.913Z,18.30
2017-11-15T12:09:08.068Z,18.30
2017-11-15T12:11:35.217Z,18.30
2017-11-15T12:14:02.378Z,18.30
2017-11-15T12:16:30.301Z,18.30
2017-11-15T12:18:57.461Z,18.30
2017-11-15T12:21:24.629Z,18.30
2017-11-15T12:23:51.809Z,18.20
2017-11-15T12:26:19.736Z,18.30
2017-11-15T12:28:47.708Z,18.30
2017-11-15T12:31:15.888Z,18.30
2017-11-15T12:33:43.072Z,18.30
2017-11-15T12:36:10.997Z,18.20
2017-11-15T12:38:38.144Z,18.20
2017-11-15T12:41:06.061Z,18.30
2017-11-15T12:43:34.871Z,18.30
2017-11-15T12:46:02.940Z,18.20
2017-11-15T12:48:30.108Z,18.30
2017-11-15T12:50:58.200Z,18.30
2017-11-15T12:53:26.289Z,18.20
2017-11-15T12:55:54.372Z,18.20
2017-11-15T12:58:22.301Z,18.30
2017-11-15T13:00:50.476Z,18.40
2017-11-15T13:03:18.532Z,18.50
2017-11-15T13:05:46.734Z,18.50
2017-11-15T13:08:13.885Z,18.50
2017-11-15T13:10:41.857Z,18.50
2017-11-15T13:13:09.949Z,18.40
2017-11-15T13:15:38.009Z,18.40
2017-11-15T13:18:05.172Z,18.40
2017-11-15T13:20:33.138Z,18.50
2017-11-15T13:23:01.092Z,18.50
2017-11-15T13:25:29.185Z,18.40
2017-11-15T13:27:57.260Z,18.40
2017-11-15T13:30:25.355Z,18.40
2017-11-15T13:32:54.045Z,18.40
2017-11-15T13:35:21.960Z,18.40
2017-11-15T13:37:49.157Z,18.40
2017-11-15T13:40:19.757Z,18.40
2017-11-15T13:42:47.840Z,18.40
2017-11-15T13:45:14.990Z,18.40
2017-11-15T13:47:42.923Z,18.40
2017-11-15T13:50:10.109Z,18.40
2017-11-15T13:52:38.209Z,18.40
2017-11-15T13:55:06.125Z,18.40
2017-11-15T13:57:34.105Z,18.40
2017-11-15T14:00:01.259Z,18.40
2017-11-15T14:02:30.068Z,18.30
2017-11-15T14:04:57.222Z,18.30
2017-11-15T14:07:24.409Z,18.30
2017-11-15T14:09:52.363Z,18.40
2017-11-15T14:12:20.316Z,18.40
2017-11-15T14:14:48.369Z,18.40
2017-11-15T14:17:15.556Z,18.40
2017-11-15T14:19:43.473Z,18.30
2017-11-15T14:22:10.628Z,18.30
2017-11-15T14:24:37.790Z,18.30
2017-11-15T14:27:04.938Z,18.30
2017-11-15T14:29:32.092Z,18.30
2017-11-15T14:31:59.251Z,18.40
2017-11-15T14:34:26.400Z,18.30
2017-11-15T14:36:53.547Z,18.30
2017-11-15T14:39:20.702Z,18.30
2017-11-15T14:41:47.852Z,18.30
2017-11-15T14:44:15.012Z,18.30
2017-11-15T14:46:42.161Z,18.30
2017-11-15T14:49:09.313Z,18.40
2017-11-15T14:51:36.472Z,18.40
2017-11-15T14:54:03.621Z,18.30
2017-11-15T14:56:31.550Z,18.20
2017-11-15T14:58:59.627Z,18.30
2017-11-15T15:01:27.689Z,18.30
2017-11-15T15:03:54.875Z,18.30
2017-11-15T15:06:22.024Z,18.30
2017-11-15T15:08:49.968Z,18.30
2017-11-15T15:11:17.129Z,18.30
2017-11-15T15:13:44.331Z,18.40
2017-11-15T15:16:12.252Z,18.50
2017-11-15T15:18:39.401Z,18.50
2017-11-15T15:21:06.549Z,18.50
2017-11-15T15:23:33.703Z,18.50
2017-11-15T15:26:00.866Z,18.50
2017-11-15T15:28:28.916Z,18.50
2017-11-15T15:30:56.071Z,18.50
2017-11-15T15:33:24.112Z,18.50
2017-11-15T15:35:52.025Z,18.50
2017-11-15T15:38:19.176Z,18.50
2017-11-15T15:40:47.094Z,18.50
2017-11-15T15:43:15.008Z,18.40
2017-11-15T15:45:42.164Z,18.40
2017-11-15T15:48:10.088Z,18.40
2017-11-15T15:50:38.009Z,18.40
2017-11-15T15:53:05.169Z,18.40
2017-11-15T15:55:33.141Z,18.40
2017-11-15T15:58:00.337Z,18.40
2017-11-15T16:00:28.259Z,18.40
2017-11-15T16:02:55.414Z,18.40
2017-11-15T16:05:22.568Z,18.40
2017-11-15T16:07:49.726Z,18.40
2017-11-15T16:10:19.705Z,18.40
2017-11-15T16:12:46.854Z,18.40
2017-11-15T16:15:14.032Z,18.40
2017-11-15T16:17:41.199Z,18.40
2017-11-15T16:20:09.153Z,18.30
2017-11-15T16:22:37.175Z,18.40
2017-11-15T16:25:04.365Z,18.40
2017-11-15T16:27:31.511Z,18.40
2017-11-15T16:29:59.593Z,18.40
2017-11-15T16:32:27.715Z,18.40
2017-11-15T16:34:56.565Z,18.30
2017-11-15T16:37:24.216Z,18.30
2017-11-15T16:39:51.369Z,18.30
2017-11-15T16:42:19.279Z,18.30
2017-11-15T16:44:47.205Z,18.40
2017-11-15T16:47:14.448Z,18.30
2017-11-15T16:49:42.496Z,18.40
2017-11-15T16:52:09.669Z,18.40
2017-11-15T16:54:36.855Z,18.50
2017-11-15T16:57:04.792Z,18.50
2017-11-15T16:59:31.936Z,18.60
2017-11-15T17:01:59.223Z,18.60
2017-11-15T17:04:26.379Z,18.50
2017-11-15T17:06:53.531Z,18.50
2017-11-15T17:09:21.484Z,18.50
2017-11-15T17:11:50.217Z,18.50
2017-11-15T17:14:18.136Z,18.50
2017-11-15T17:16:45.288Z,18.50
2017-11-15T17:19:12.471Z,18.50
2017-11-15T17:21:39.620Z,18.50
2017-11-15T17:24:07.682Z,18.50
2017-11-15T17:26:34.864Z,18.50
2017-11-15T17:29:03.676Z,18.50
2017-11-15T17:31:30.919Z,18.50
2017-11-15T17:33:58.120Z,18.50
2017-11-15T17:36:26.861Z,18.40
2017-11-15T17:38:54.784Z,18.50
2017-11-15T17:41:22.835Z,18.50
2017-11-15T17:43:50.941Z,18.50
2017-11-15T17:46:18.088Z,18.40
2017-11-15T17:48:46.007Z,18.40
2017-11-15T17:51:13.156Z,18.40
2017-11-15T17:53:40.332Z,18.40
2017-11-15T17:56:07.476Z,18.40
2017-11-15T17:58:34.721Z,18.40
2017-11-15T18:01:02.834Z,18.40
2017-11-15T18:03:30.036Z,18.40
2017-11-15T18:05:57.227Z,18.40
2017-11-15T18:08:24.751Z,18.40
2017-11-15T18:10:51.901Z,18.40
2017-11-15T18:13:19.057Z,18.40
2017-11-15T18:15:46.344Z,18.40
2017-11-15T18:18:13.542Z,18.40
2017-11-15T18:20:40.704Z,18.40
2017-11-15T18:23:08.501Z,18.40
2017-11-15T18:25:35.687Z,18.40
2017-11-15T18:28:03.700Z,18.40
2017-11-15T18:30:31.762Z,18.40
2017-11-15T18:32:59.840Z,18.40
2017-11-15T18:35:26.985Z,18.40
2017-11-15T18:37:54.240Z,18.40
2017-11-15T18:40:21.495Z,18.30
2017-11-15T18:42:48.689Z,18.30
2017-11-15T18:45:15.895Z,18.40
2017-11-15T18:47:43.041Z,18.40
2017-11-15T18:50:10.187Z,18.40
2017-11-15T18:52:39.032Z,18.30
2017-11-15T18:55:07.093Z,18.30
2017-11-15T18:57:35.140Z,18.30
2017-11-15T19:00:03.177Z,18.40
2017-11-15T19:02:31.181Z,18.50
2017-11-15T19:04:58.354Z,18.50
2017-11-15T19:07:25.535Z,18.50
2017-11-15T19:09:52.688Z,18.60
2017-11-15T19:12:19.828Z,18.60
2017-11-15T19:14:46.973Z,18.60
2017-11-15T19:17:14.160Z,18.50
2017-11-15T19:19:42.081Z,18.50
2017-11-15T19:22:10.247Z,18.50
2017-11-15T19:24:38.359Z,18.50
2017-11-15T19:27:06.408Z,18.50
2017-11-15T19:29:33.556Z,18.50
2017-11-15T19:32:00.784Z,18.50
2017-11-15T19:34:27.933Z,18.50
2017-11-15T19:36:56.004Z,18.50
2017-11-15T19:39:24.072Z,18.50
2017-11-15T19:41:52.132Z,18.50
2017-11-15T19:44:20.321Z,18.50
2017-11-15T19:46:48.392Z,18.40
2017-11-15T19:49:16.484Z,18.40
2017-11-15T19:51:44.564Z,18.40
2017-11-15T19:54:12.539Z,18.40
2017-11-15T19:56:39.804Z,18.40
2017-11-15T19:59:07.855Z,18.40
2017-11-15T20:01:35.812Z,18.40
2017-11-15T20:04:03.784Z,18.40
2017-11-15T20:06:31.747Z,18.40
2017-11-15T20:08:59.312Z,18.40
2017-11-15T20:11:26.458Z,18.40
2017-11-15T20:13:54.557Z,18.40
2017-11-15T20:16:22.604Z,18.40
2017-11-15T20:18:50.647Z,18.40
2017-11-15T20:21:19.568Z,18.40
2017-11-15T20:23:47.639Z,18.40
2017-11-15T20:26:15.700Z,18.40
2017-11-15T20:28:43.604Z,18.40
2017-11-15T20:31:11.556Z,18.40
2017-11-15T20:33:39.732Z,18.30
2017-11-15T20:36:07.780Z,18.30
2017-11-15T20:38:36.589Z,18.30
2017-11-15T20:41:04.552Z,18.30
2017-11-15T20:43:31.743Z,18.30
2017-11-15T20:45:58.965Z,18.40
2017-11-15T20:48:26.119Z,18.50
2017-11-15T20:50:54.288Z,18.50
2017-11-15T20:53:22.377Z,18.60
2017-11-15T20:55:50.484Z,18.60
2017-11-15T20:58:17.688Z,18.60
2017-11-15T21:00:45.652Z,18.60
2017-11-15T21:03:13.724Z,18.50
2017-11-15T21:05:41.777Z,18.50
2017-11-15T21:08:09.694Z,18.50
2017-11-15T21:10:37.716Z,18.50
2017-11-15T21:13:06.756Z,18.50
2017-11-15T21:15:34.808Z,18.50
2017-11-15T21:18:02.876Z,18.50
2017-11-15T21:20:30.141Z,18.40
2017-11-15T21:22:57.929Z,18.40
2017-11-15T21:25:25.923Z,18.40
2017-11-15T21:27:53.073Z,18.40
2017-11-15T21:30:20.683Z,18.50
2017-11-15T21:32:47.826Z,18.40
2017-11-15T21:35:16.018Z,18.50
2017-11-15T21:37:44.190Z,18.40
2017-11-15T21:40:11.438Z,18.40
2017-11-15T21:42:38.589Z,18.40
2017-11-15T21:45:05.768Z,18.40
2017-11-15T21:47:32.927Z,18.40
2017-11-15T21:50:01.091Z,18.40
2017-11-15T21:52:28.330Z,18.40
2017-11-15T21:54:55.476Z,18.30
2017-11-15T21:57:22.629Z,18.30
2017-11-15T21:59:49.785Z,18.30
2017-11-15T22:02:16.981Z,18.40
2017-11-15T22:04:44.172Z,18.40
2017-11-15T22:07:11.328Z,18.40
2017-11-15T22:09:38.575Z,18.40
2017-11-15T22:12:05.731Z,18.30
2017-11-15T22:14:32.910Z,18.30
2017-11-15T22:17:00.109Z,18.30
2017-11-15T22:19:28.023Z,18.30
2017-11-15T22:21:55.174Z,18.30
2017-11-15T22:24:22.327Z,18.40
2017-11-15T22:26:49.469Z,18.30
2017-11-15T22:31:50.320Z,18.30
2017-11-15T22:34:17.566Z,18.30
2017-11-15T22:36:44.819Z,18.30
2017-11-15T22:39:12.077Z,18.40
2017-11-15T22:41:39.327Z,18.30
2017-11-15T22:44:06.507Z,18.20
2017-11-15T22:46:33.648Z,18.20
2017-11-15T22:49:00.835Z,18.30
2017-11-15T22:51:28.000Z,18.30
2017-11-15T22:53:55.995Z,18.30
2017-11-15T22:56:23.165Z,18.30
2017-11-15T22:58:50.316Z,18.20
2017-11-15T23:01:18.273Z,18.20
2017-11-15T23:03:45.522Z,18.30
2017-11-15T23:06:12.779Z,18.20
2017-11-15T23:08:40.031Z,18.20
2017-11-15T23:11:07.181Z,18.20
2017-11-15T23:13:34.328Z,18.30
2017-11-15T23:16:01.476Z,18.40
2017-11-15T23:18:28.628Z,18.50
2017-11-15T23:20:55.812Z,18.50
2017-11-15T23:23:23.043Z,18.50
2017-11-15T23:25:50.296Z,18.50
2017-11-15T23:28:17.446Z,18.50
2017-11-15T23:30:44.606Z,18.50
2017-11-15T23:33:11.769Z,18.50
2017-11-15T23:35:38.916Z,18.50
2017-11-15T23:38:06.060Z,18.50
2017-11-15T23:40:33.309Z,18.50
2017-11-15T23:43:00.455Z,18.50
2017-11-15T23:45:27.704Z,18.40
2017-11-15T23:47:54.959Z,18.40
2017-11-15T23:50:22.107Z,18.40
2017-11-15T23:52:49.256Z,18.40
2017-11-15T23:55:16.404Z,18.50
2017-11-15T23:57:43.550Z,18.40
